Mister Mac — WDH8821 — position and weather

sailwx.info

Track history (hours):
 
Tides and Currents Weather Stations Pressure Air Temp Water Temp Dewpoint Dewpoint Depression Visibility Wind Speed Wind Dir Waves Ship Positions

Mister Mac

Owner: McDonough Project Services LP, Metairie, LA. More information available from US FCC via Universal Licensing System and Coast Guard Vessel Documentation Center.

Last reported at 2017-Sep-21 02:43 UTC. Time now 2017-Sep-22 04:26 UTC.
Position N 29°47' W 095°05'.

Length 25 m; draft 3 m.

Type: Towing. MMSI: 367661820.

Date/timePositionNaut miles runAvg speedWind from/ knotsBaromVisibWave heightAir tempDewpointWater temp
2017-Sep-21 02:43N 29°47' W 095°05'1 2.1
2017-Sep-21 02:24N 29°47' W 095°05'1 1.7
2017-Sep-21 01:57N 29°46' W 095°05'3 6.9
2017-Sep-21 01:29N 29°44' W 095°02'3 6.8
2017-Sep-21 01:01N 29°41' W 094°59'4 7.3
2017-Sep-21 00:31N 29°38' W 094°58'4 8.6
2017-Sep-21 00:00N 29°34' W 094°55'5 8.7
2017-Sep-20 23:28N 29°30' W 094°52'77 5.1
2017-Sep-20 08:10N 30°04' W 093°32'1 5.7
2017-Sep-20 08:01N 30°04' W 093°31'3 5.7
2017-Sep-20 07:31N 30°04' W 093°28'3 5.7
2017-Sep-20 07:01N 30°04' W 093°24'3 5.1
2017-Sep-20 06:30N 30°04' W 093°21'2 4.8
2017-Sep-20 06:01N 30°05' W 093°20'1 2.1
2017-Sep-20 05:31N 30°06' W 093°19'1 3.0
2017-Sep-20 05:01N 30°05' W 093°17'2 3.4
2017-Sep-20 04:30N 30°04' W 093°16'1 1.1
2017-Sep-20 04:01N 30°03' W 093°16'0 0.1
2017-Sep-20 03:31N 30°03' W 093°16'1 1.5
2017-Sep-20 03:01N 30°03' W 093°16'3 5.1
2017-Sep-20 02:31N 30°01' W 093°14'2 4.0
2017-Sep-20 02:01N 29°59' W 093°12'2 2.6
2017-Sep-20 01:23N 29°58' W 093°11'45 5.5
2017-Sep-19 17:15N 29°51' W 092°20'2 4.5
2017-Sep-19 16:52N 29°50' W 092°18'1 2.9
2017-Sep-19 16:31N 29°49' W 092°18'1 1.4
2017-Sep-19 15:59N 29°49' W 092°17'0 0.5
2017-Sep-19 15:30N 29°49' W 092°17'1 1.5
2017-Sep-19 15:00N 29°49' W 092°16'3 6.2
2017-Sep-19 14:30N 29°47' W 092°13'1 1.1
2017-Sep-19 14:01N 29°47' W 092°12'1 2.2
2017-Sep-19 13:31N 29°47' W 092°11'2 4.6
2017-Sep-19 13:01N 29°47' W 092°08'3 6.0
2017-Sep-19 12:28N 29°48' W 092°05'61 1.9
2017-Sep-18 04:58N 29°34' W 090°57'4 6.9
2017-Sep-18 04:26N 29°32' W 090°53'3 6.7
2017-Sep-18 04:00N 29°32' W 090°50'3 6.7
2017-Sep-18 03:31N 29°32' W 090°46'2 4.3
2017-Sep-18 03:01N 29°34' W 090°44'2 4.2
2017-Sep-18 02:31N 29°36' W 090°43'2 3.0
2017-Sep-18 02:01N 29°37' W 090°42'0 0.7
2017-Sep-18 01:31N 29°36' W 090°41'2 4.6
2017-Sep-18 01:00N 29°36' W 090°39'3 5.7
2017-Sep-18 00:29N 29°35' W 090°36'3 6.4
2017-Sep-18 00:00N 29°34' W 090°32'8 0.4
2017-Sep-17 03:21N 29°34' W 090°23'4 5.8
2017-Sep-17 02:39N 29°33' W 090°28'1 7.1
2017-Sep-17 02:30N 29°34' W 090°29'4 7.1
2017-Sep-17 02:00N 29°34' W 090°33'3 5.2
2017-Sep-17 01:31N 29°35' W 090°36'0 0.2
2017-Sep-17 01:00N 29°35' W 090°36'0 0.1
2017-Sep-17 00:31N 29°35' W 090°36'1 2.8
2017-Sep-17 00:01N 29°35' W 090°37'3 6.6
2017-Sep-16 23:31N 29°36' W 090°41'2 3.5
2017-Sep-16 23:01N 29°36' W 090°43'3 5.2
2017-Sep-16 22:31N 29°33' W 090°42'1 1.1
2017-Sep-16 22:01N 29°33' W 090°42'1 2.9
2017-Sep-16 21:30N 29°34' W 090°43'2 3.8
2017-Sep-16 21:00N 29°34' W 090°45'3 5.3
2017-Sep-16 20:31N 29°32' W 090°47'3 6.2
2017-Sep-16 20:00N 29°32' W 090°51'3 6.1
2017-Sep-16 19:29N 29°33' W 090°55'3 6.4
2017-Sep-16 18:59N 29°35' W 090°58'112 2.4
2017-Sep-14 20:52N 29°56' W 093°04'2 6.3
2017-Sep-14 20:29N 29°56' W 093°07'3 6.0
2017-Sep-14 20:01N 29°57' W 093°10'3 6.4
2017-Sep-14 19:31N 29°59' W 093°12'3 5.8
2017-Sep-14 19:01N 30°01' W 093°14'3 5.7
2017-Sep-14 18:31N 30°04' W 093°16'2 3.8
2017-Sep-14 18:01N 30°05' W 093°18'1 2.2
2017-Sep-14 17:30N 30°06' W 093°18'0 0.1
2017-Sep-14 17:01N 30°06' W 093°18'0 0.9
2017-Sep-14 16:31N 30°06' W 093°19'2 4.4
2017-Sep-14 16:01N 30°04' W 093°20'3 5.3
2017-Sep-14 15:31N 30°04' W 093°23'4 7.5
2017-Sep-14 15:01N 30°04' W 093°28'4 7.5
2017-Sep-14 14:31N 30°04' W 093°32'4 7.3
2017-Sep-14 14:01N 30°04' W 093°36'4 7.2
2017-Sep-14 13:30N 30°04' W 093°40'71 2.0
2017-Sep-13 02:54N 29°30' W 094°52'2 5.8
2017-Sep-13 02:30N 29°32' W 094°54'3 5.9
2017-Sep-13 02:01N 29°34' W 094°55'3 6.2
2017-Sep-13 01:30N 29°37' W 094°57'3 6.4
2017-Sep-13 00:59N 29°40' W 094°59'3 6.2
2017-Sep-13 00:30N 29°42' W 095°01'5 5.9
2017-Sep-12 23:36N 29°46' W 095°05'1 5.0
2017-Sep-12 23:28N 29°47' W 095°05'1 0.3
2017-Sep-12 20:27N 29°46' W 095°05'1 0.1
2017-Sep-11 17:58N 29°47' W 095°05'  
Track history (hours):
 
Tides and Currents Weather Stations Pressure Air Temp Water Temp Dewpoint Dewpoint Depression Visibility Wind Speed Wind Dir Waves Ship Positions

Mister Mac

Owner: McDonough Project Services LP, Metairie, LA. More information available from US FCC via Universal Licensing System and Coast Guard Vessel Documentation Center.

Last reported at 2017-Sep-21 02:43 UTC. Time now 2017-Sep-22 04:26 UTC.
Position N 29°47' W 095°05'.

Length 25 m; draft 3 m.

Type: Towing. MMSI: 367661820.

Date/timePositionNaut miles runAvg speedWind from/ knotsBaromVisibWave heightAir tempDewpointWater temp
2017-Sep-21 02:43N 29°47' W 095°05'1 2.1
2017-Sep-21 02:24N 29°47' W 095°05'1 1.7
2017-Sep-21 01:57N 29°46' W 095°05'3 6.9
2017-Sep-21 01:29N 29°44' W 095°02'3 6.8
2017-Sep-21 01:01N 29°41' W 094°59'4 7.3
2017-Sep-21 00:31N 29°38' W 094°58'4 8.6
2017-Sep-21 00:00N 29°34' W 094°55'5 8.7
2017-Sep-20 23:28N 29°30' W 094°52'77 5.1
2017-Sep-20 08:10N 30°04' W 093°32'1 5.7
2017-Sep-20 08:01N 30°04' W 093°31'3 5.7
2017-Sep-20 07:31N 30°04' W 093°28'3 5.7
2017-Sep-20 07:01N 30°04' W 093°24'3 5.1
2017-Sep-20 06:30N 30°04' W 093°21'2 4.8
2017-Sep-20 06:01N 30°05' W 093°20'1 2.1
2017-Sep-20 05:31N 30°06' W 093°19'1 3.0
2017-Sep-20 05:01N 30°05' W 093°17'2 3.4
2017-Sep-20 04:30N 30°04' W 093°16'1 1.1
2017-Sep-20 04:01N 30°03' W 093°16'0 0.1
2017-Sep-20 03:31N 30°03' W 093°16'1 1.5
2017-Sep-20 03:01N 30°03' W 093°16'3 5.1
2017-Sep-20 02:31N 30°01' W 093°14'2 4.0
2017-Sep-20 02:01N 29°59' W 093°12'2 2.6
2017-Sep-20 01:23N 29°58' W 093°11'45 5.5
2017-Sep-19 17:15N 29°51' W 092°20'2 4.5
2017-Sep-19 16:52N 29°50' W 092°18'1 2.9
2017-Sep-19 16:31N 29°49' W 092°18'1 1.4
2017-Sep-19 15:59N 29°49' W 092°17'0 0.5
2017-Sep-19 15:30N 29°49' W 092°17'1 1.5
2017-Sep-19 15:00N 29°49' W 092°16'3 6.2
2017-Sep-19 14:30N 29°47' W 092°13'1 1.1
2017-Sep-19 14:01N 29°47' W 092°12'1 2.2
2017-Sep-19 13:31N 29°47' W 092°11'2 4.6
2017-Sep-19 13:01N 29°47' W 092°08'3 6.0
2017-Sep-19 12:28N 29°48' W 092°05'61 1.9
2017-Sep-18 04:58N 29°34' W 090°57'4 6.9
2017-Sep-18 04:26N 29°32' W 090°53'3 6.7
2017-Sep-18 04:00N 29°32' W 090°50'3 6.7
2017-Sep-18 03:31N 29°32' W 090°46'2 4.3
2017-Sep-18 03:01N 29°34' W 090°44'2 4.2
2017-Sep-18 02:31N 29°36' W 090°43'2 3.0
2017-Sep-18 02:01N 29°37' W 090°42'0 0.7
2017-Sep-18 01:31N 29°36' W 090°41'2 4.6
2017-Sep-18 01:00N 29°36' W 090°39'3 5.7
2017-Sep-18 00:29N 29°35' W 090°36'3 6.4
2017-Sep-18 00:00N 29°34' W 090°32'8 0.4
2017-Sep-17 03:21N 29°34' W 090°23'4 5.8
2017-Sep-17 02:39N 29°33' W 090°28'1 7.1
2017-Sep-17 02:30N 29°34' W 090°29'4 7.1
2017-Sep-17 02:00N 29°34' W 090°33'3 5.2
2017-Sep-17 01:31N 29°35' W 090°36'0 0.2
2017-Sep-17 01:00N 29°35' W 090°36'0 0.1
2017-Sep-17 00:31N 29°35' W 090°36'1 2.8
2017-Sep-17 00:01N 29°35' W 090°37'3 6.6
2017-Sep-16 23:31N 29°36' W 090°41'2 3.5
2017-Sep-16 23:01N 29°36' W 090°43'3 5.2
2017-Sep-16 22:31N 29°33' W 090°42'1 1.1
2017-Sep-16 22:01N 29°33' W 090°42'1 2.9
2017-Sep-16 21:30N 29°34' W 090°43'2 3.8
2017-Sep-16 21:00N 29°34' W 090°45'3 5.3
2017-Sep-16 20:31N 29°32' W 090°47'3 6.2
2017-Sep-16 20:00N 29°32' W 090°51'3 6.1
2017-Sep-16 19:29N 29°33' W 090°55'3 6.4
2017-Sep-16 18:59N 29°35' W 090°58'112 2.4
2017-Sep-14 20:52N 29°56' W 093°04'2 6.3
2017-Sep-14 20:29N 29°56' W 093°07'3 6.0
2017-Sep-14 20:01N 29°57' W 093°10'3 6.4
2017-Sep-14 19:31N 29°59' W 093°12'3 5.8
2017-Sep-14 19:01N 30°01' W 093°14'3 5.7
2017-Sep-14 18:31N 30°04' W 093°16'2 3.8
2017-Sep-14 18:01N 30°05' W 093°18'1 2.2
2017-Sep-14 17:30N 30°06' W 093°18'0 0.1
2017-Sep-14 17:01N 30°06' W 093°18'0 0.9
2017-Sep-14 16:31N 30°06' W 093°19'2 4.4
2017-Sep-14 16:01N 30°04' W 093°20'3 5.3
2017-Sep-14 15:31N 30°04' W 093°23'4 7.5
2017-Sep-14 15:01N 30°04' W 093°28'4 7.5
2017-Sep-14 14:31N 30°04' W 093°32'4 7.3
2017-Sep-14 14:01N 30°04' W 093°36'4 7.2
2017-Sep-14 13:30N 30°04' W 093°40'71 2.0
2017-Sep-13 02:54N 29°30' W 094°52'2 5.8
2017-Sep-13 02:30N 29°32' W 094°54'3 5.9
2017-Sep-13 02:01N 29°34' W 094°55'3 6.2
2017-Sep-13 01:30N 29°37' W 094°57'3 6.4
2017-Sep-13 00:59N 29°40' W 094°59'3 6.2
2017-Sep-13 00:30N 29°42' W 095°01'5 5.9
2017-Sep-12 23:36N 29°46' W 095°05'1 5.0
2017-Sep-12 23:28N 29°47' W 095°05'1 0.3
2017-Sep-12 20:27N 29°46' W 095°05'1 0.1
2017-Sep-11 17:58N 29°47' W 095°05'  

Dump ship's entire track history